KHII/HII METAR and TAF weather

Enter ICAO airport designator
Station Type Date Time Source
KHII METAR 2021/05/13 05:55 UTC NOAA

KHII 130555Z AUTO 12007KT 10SM CLR 30/M05 A2990 RMK AO2


Station Type Date Time Source
KHII Decoded METAR 2021/05/13 05:55 UTC NOAA

Station name not available
May 13, 2021 - 01:55 AM EDT / 2021.05.13 0555 UTC
Wind: from the ESE (120 degrees) at 8 MPH (7 KT):0
Visibility: 10 mile(s):0
Sky conditions: clear
Temperature: 86 F (30 C)
Dew Point: 23 F (-5 C)
Relative Humidity: 9%
Pressure (altimeter): 29.9 in. Hg (1012 hPa)
ob: KHII 130555Z AUTO 12007KT 10SM CLR 30/M05 A2990 RMK AO2
cycle: 6

Station Type Date Time Source
KHII TAF UTC NOAA

Error!

Example: see airport list